sensor_id;sensor_type;location;lat;lon;timestamp;temperature;humidity
58638;DHT22;54976;51.510;7.522;2023-09-19T00:01:09;16.70;99.90
58638;DHT22;54976;51.510;7.522;2023-09-19T00:04:09;16.70;99.90
58638;DHT22;54976;51.510;7.522;2023-09-19T00:07:10;16.60;99.90
58638;DHT22;54976;51.510;7.522;2023-09-19T00:10:10;16.60;99.90
58638;DHT22;54976;51.510;7.522;2023-09-19T00:13:11;16.50;99.90
58638;DHT22;54976;51.510;7.522;2023-09-19T00:16:13;16.40;99.90
58638;DHT22;54976;51.510;7.522;2023-09-19T00:19:15;16.40;99.90
58638;DHT22;54976;51.510;7.522;2023-09-19T00:22:16;16.30;99.90
58638;DHT22;54976;51.510;7.522;2023-09-19T00:25:20;16.30;99.90
58638;DHT22;54976;51.510;7.522;2023-09-19T00:28:21;16.30;99.90
58638;DHT22;54976;51.510;7.522;2023-09-19T00:31:21;16.20;99.90
58638;DHT22;54976;51.510;7.522;2023-09-19T00:34:25;16.20;99.90
58638;DHT22;54976;51.510;7.522;2023-09-19T00:37:26;16.20;99.90
58638;DHT22;54976;51.510;7.522;2023-09-19T00:40:27;16.20;99.90
58638;DHT22;54976;51.510;7.522;2023-09-19T00:43:27;16.10;99.90
58638;DHT22;54976;51.510;7.522;2023-09-19T00:46:28;16.10;99.90
58638;DHT22;54976;51.510;7.522;2023-09-19T00:49:29;16.10;99.90
58638;DHT22;54976;51.510;7.522;2023-09-19T00:52:31;16.00;99.90
58638;DHT22;54976;51.510;7.522;2023-09-19T00:55:32;16.00;99.90
58638;DHT22;54976;51.510;7.522;2023-09-19T00:58:34;16.00;99.90
58638;DHT22;54976;51.510;7.522;2023-09-19T01:01:37;16.00;99.90
58638;DHT22;54976;51.510;7.522;2023-09-19T01:04:40;15.90;99.90
58638;DHT22;54976;51.510;7.522;2023-09-19T01:07:41;16.00;99.90
58638;DHT22;54976;51.510;7.522;2023-09-19T01:10:52;15.90;99.90
58638;DHT22;54976;51.510;7.522;2023-09-19T01:14:02;15.80;99.90
58638;DHT22;54976;51.510;7.522;2023-09-19T01:17:14;15.80;99.90
58638;DHT22;54976;51.510;7.522;2023-09-19T01:20:41;15.80;99.90
58638;DHT22;54976;51.510;7.522;2023-09-19T01:30:31;15.70;99.90
58638;DHT22;54976;51.510;7.522;2023-09-19T01:36:57;15.60;99.90
58638;DHT22;54976;51.510;7.522;2023-09-19T01:40:06;15.60;99.90
58638;DHT22;54976;51.510;7.522;2023-09-19T01:43:27;15.60;99.90
58638;DHT22;54976;51.510;7.522;2023-09-19T01:46:34;15.60;99.90
58638;DHT22;54976;51.510;7.522;2023-09-19T01:49:49;15.60;99.90
58638;DHT22;54976;51.510;7.522;2023-09-19T01:53:04;15.60;99.90
58638;DHT22;54976;51.510;7.522;2023-09-19T01:56:07;15.60;99.90
58638;DHT22;54976;51.510;7.522;2023-09-19T01:59:17;15.50;99.90
58638;DHT22;54976;51.510;7.522;2023-09-19T02:02:20;15.50;99.90
58638;DHT22;54976;51.510;7.522;2023-09-19T02:05:23;15.50;99.90
58638;DHT22;54976;51.510;7.522;2023-09-19T02:08:28;15.50;99.90
58638;DHT22;54976;51.510;7.522;2023-09-19T02:11:29;15.50;99.90
58638;DHT22;54976;51.510;7.522;2023-09-19T02:14:30;15.40;99.90
58638;DHT22;54976;51.510;7.522;2023-09-19T02:17:31;15.40;99.90
58638;DHT22;54976;51.510;7.522;2023-09-19T02:20:31;15.40;99.90
58638;DHT22;54976;51.510;7.522;2023-09-19T02:23:33;15.40;99.90
58638;DHT22;54976;51.510;7.522;2023-09-19T02:26:34;15.40;99.90
58638;DHT22;54976;51.510;7.522;2023-09-19T02:29:36;15.40;99.90
58638;DHT22;54976;51.510;7.522;2023-09-19T02:32:36;15.40;99.90
58638;DHT22;54976;51.510;7.522;2023-09-19T02:35:39;15.40;99.90
58638;DHT22;54976;51.510;7.522;2023-09-19T02:38:39;15.40;99.90
58638;DHT22;54976;51.510;7.522;2023-09-19T02:41:40;15.30;99.90
58638;DHT22;54976;51.510;7.522;2023-09-19T02:44:41;15.40;99.90
58638;DHT22;54976;51.510;7.522;2023-09-19T02:47:42;15.30;99.90
58638;DHT22;54976;51.510;7.522;2023-09-19T02:50:43;15.30;99.90
58638;DHT22;54976;51.510;7.522;2023-09-19T02:53:44;15.40;99.90
58638;DHT22;54976;51.510;7.522;2023-09-19T02:56:48;15.30;99.80
58638;DHT22;54976;51.510;7.522;2023-09-19T02:59:48;15.30;99.90
58638;DHT22;54976;51.510;7.522;2023-09-19T03:02:49;15.30;99.50
58638;DHT22;54976;51.510;7.522;2023-09-19T03:05:50;15.30;99.90
58638;DHT22;54976;51.510;7.522;2023-09-19T03:08:51;15.40;99.50
58638;DHT22;54976;51.510;7.522;2023-09-19T03:11:52;15.30;99.50
58638;DHT22;54976;51.510;7.522;2023-09-19T03:14:53;15.30;99.70
58638;DHT22;54976;51.510;7.522;2023-09-19T03:17:53;15.30;99.90
58638;DHT22;54976;51.510;7.522;2023-09-19T03:20:55;15.30;99.50
58638;DHT22;54976;51.510;7.522;2023-09-19T03:23:56;15.30;99.50
58638;DHT22;54976;51.510;7.522;2023-09-19T03:26:57;15.30;99.40
58638;DHT22;54976;51.510;7.522;2023-09-19T03:29:57;15.30;99.40
58638;DHT22;54976;51.510;7.522;2023-09-19T03:32:58;15.20;99.40
58638;DHT22;54976;51.510;7.522;2023-09-19T03:35:59;15.20;99.10
58638;DHT22;54976;51.510;7.522;2023-09-19T03:39:02;15.30;99.00
58638;DHT22;54976;51.510;7.522;2023-09-19T03:42:05;15.20;98.70
58638;DHT22;54976;51.510;7.522;2023-09-19T03:45:08;15.20;98.80
58638;DHT22;54976;51.510;7.522;2023-09-19T03:48:12;15.20;98.80
58638;DHT22;54976;51.510;7.522;2023-09-19T03:51:13;15.30;98.50
58638;DHT22;54976;51.510;7.522;2023-09-19T03:54:14;15.20;98.10
58638;DHT22;54976;51.510;7.522;2023-09-19T03:57:14;15.10;97.70
58638;DHT22;54976;51.510;7.522;2023-09-19T04:00:17;15.10;97.60
58638;DHT22;54976;51.510;7.522;2023-09-19T04:03:21;15.10;97.40
58638;DHT22;54976;51.510;7.522;2023-09-19T04:06:22;15.10;97.20
58638;DHT22;54976;51.510;7.522;2023-09-19T04:09:22;15.10;97.40
58638;DHT22;54976;51.510;7.522;2023-09-19T04:12:23;15.20;97.70
58638;DHT22;54976;51.510;7.522;2023-09-19T04:15:24;15.00;97.20
58638;DHT22;54976;51.510;7.522;2023-09-19T04:18:25;15.00;97.30
58638;DHT22;54976;51.510;7.522;2023-09-19T04:21:25;15.00;97.20
58638;DHT22;54976;51.510;7.522;2023-09-19T04:24:27;15.00;97.20
58638;DHT22;54976;51.510;7.522;2023-09-19T04:27:27;14.90;97.00
58638;DHT22;54976;51.510;7.522;2023-09-19T04:30:28;14.90;97.00
58638;DHT22;54976;51.510;7.522;2023-09-19T04:33:29;14.90;97.20
58638;DHT22;54976;51.510;7.522;2023-09-19T04:36:29;14.90;97.40
58638;DHT22;54976;51.510;7.522;2023-09-19T04:39:30;14.90;97.30
58638;DHT22;54976;51.510;7.522;2023-09-19T04:42:31;14.90;97.40
58638;DHT22;54976;51.510;7.522;2023-09-19T04:45:31;14.90;97.30
58638;DHT22;54976;51.510;7.522;2023-09-19T04:48:32;14.80;97.90
58638;DHT22;54976;51.510;7.522;2023-09-19T04:51:34;14.80;97.90
58638;DHT22;54976;51.510;7.522;2023-09-19T04:54:36;14.80;97.70
58638;DHT22;54976;51.510;7.522;2023-09-19T04:57:37;14.80;98.10
58638;DHT22;54976;51.510;7.522;2023-09-19T05:00:37;14.80;98.00
58638;DHT22;54976;51.510;7.522;2023-09-19T05:03:38;14.80;97.80
58638;DHT22;54976;51.510;7.522;2023-09-19T05:06:38;14.80;97.90
58638;DHT22;54976;51.510;7.522;2023-09-19T05:09:39;14.80;98.00
58638;DHT22;54976;51.510;7.522;2023-09-19T05:12:42;14.80;98.20
58638;DHT22;54976;51.510;7.522;2023-09-19T05:15:45;14.70;98.00
58638;DHT22;54976;51.510;7.522;2023-09-19T05:18:46;14.70;97.80
58638;DHT22;54976;51.510;7.522;2023-09-19T05:21:46;14.80;97.90
58638;DHT22;54976;51.510;7.522;2023-09-19T05:24:47;14.80;98.10
58638;DHT22;54976;51.510;7.522;2023-09-19T05:27:48;14.80;98.00
58638;DHT22;54976;51.510;7.522;2023-09-19T05:30:49;14.80;97.90
58638;DHT22;54976;51.510;7.522;2023-09-19T05:33:50;14.80;97.90
58638;DHT22;54976;51.510;7.522;2023-09-19T05:36:50;14.80;98.00
58638;DHT22;54976;51.510;7.522;2023-09-19T05:39:52;14.90;97.90
58638;DHT22;54976;51.510;7.522;2023-09-19T05:42:54;14.90;98.20
58638;DHT22;54976;51.510;7.522;2023-09-19T05:45:54;14.90;97.90
58638;DHT22;54976;51.510;7.522;2023-09-19T05:48:56;14.90;97.70
58638;DHT22;54976;51.510;7.522;2023-09-19T05:51:57;14.90;97.90
58638;DHT22;54976;51.510;7.522;2023-09-19T05:54:59;14.90;97.70
58638;DHT22;54976;51.510;7.522;2023-09-19T05:58:00;15.00;97.70
58638;DHT22;54976;51.510;7.522;2023-09-19T06:01:00;15.00;97.50
58638;DHT22;54976;51.510;7.522;2023-09-19T06:04:02;15.00;97.70
58638;DHT22;54976;51.510;7.522;2023-09-19T06:07:02;15.00;97.30
58638;DHT22;54976;51.510;7.522;2023-09-19T06:10:04;15.10;97.80
58638;DHT22;54976;51.510;7.522;2023-09-19T06:13:06;15.10;97.30
58638;DHT22;54976;51.510;7.522;2023-09-19T06:16:10;15.10;97.70
58638;DHT22;54976;51.510;7.522;2023-09-19T06:19:10;15.20;97.40
58638;DHT22;54976;51.510;7.522;2023-09-19T06:22:11;15.20;97.30
58638;DHT22;54976;51.510;7.522;2023-09-19T06:25:13;15.30;97.30
58638;DHT22;54976;51.510;7.522;2023-09-19T06:28:19;15.40;96.90
58638;DHT22;54976;51.510;7.522;2023-09-19T06:31:24;15.40;97.10
58638;DHT22;54976;51.510;7.522;2023-09-19T06:34:26;15.40;96.80
58638;DHT22;54976;51.510;7.522;2023-09-19T06:37:30;15.50;96.60
58638;DHT22;54976;51.510;7.522;2023-09-19T06:40:31;15.50;96.60
58638;DHT22;54976;51.510;7.522;2023-09-19T06:43:32;15.60;96.60
58638;DHT22;54976;51.510;7.522;2023-09-19T06:46:34;15.60;96.20
58638;DHT22;54976;51.510;7.522;2023-09-19T06:49:36;15.70;96.40
58638;DHT22;54976;51.510;7.522;2023-09-19T06:52:36;15.70;96.50
58638;DHT22;54976;51.510;7.522;2023-09-19T06:55:38;15.80;95.80
58638;DHT22;54976;51.510;7.522;2023-09-19T06:58:38;15.80;95.80
58638;DHT22;54976;51.510;7.522;2023-09-19T07:01:39;15.80;95.90
58638;DHT22;54976;51.510;7.522;2023-09-19T07:04:40;15.90;96.10
58638;DHT22;54976;51.510;7.522;2023-09-19T07:07:41;16.00;95.70
58638;DHT22;54976;51.510;7.522;2023-09-19T07:10:42;16.00;95.70
58638;DHT22;54976;51.510;7.522;2023-09-19T07:13:48;16.00;95.70
58638;DHT22;54976;51.510;7.522;2023-09-19T07:16:49;16.10;95.50
58638;DHT22;54976;51.510;7.522;2023-09-19T07:19:50;16.10;95.50
58638;DHT22;54976;51.510;7.522;2023-09-19T07:22:50;16.20;95.40
58638;DHT22;54976;51.510;7.522;2023-09-19T07:25:51;16.40;95.50
58638;DHT22;54976;51.510;7.522;2023-09-19T07:28:52;16.40;95.20
58638;DHT22;54976;51.510;7.522;2023-09-19T07:31:53;16.40;95.10
58638;DHT22;54976;51.510;7.522;2023-09-19T07:34:54;16.40;95.00
58638;DHT22;54976;51.510;7.522;2023-09-19T07:37:55;16.40;95.20
58638;DHT22;54976;51.510;7.522;2023-09-19T07:41:00;16.40;95.00
58638;DHT22;54976;51.510;7.522;2023-09-19T07:44:01;16.40;95.20
58638;DHT22;54976;51.510;7.522;2023-09-19T07:47:01;16.50;95.10
58638;DHT22;54976;51.510;7.522;2023-09-19T07:50:04;16.50;95.10
58638;DHT22;54976;51.510;7.522;2023-09-19T07:53:04;16.60;95.10
58638;DHT22;54976;51.510;7.522;2023-09-19T07:56:06;16.60;95.50
58638;DHT22;54976;51.510;7.522;2023-09-19T07:59:07;16.80;95.50
58638;DHT22;54976;51.510;7.522;2023-09-19T08:02:08;16.90;95.00
58638;DHT22;54976;51.510;7.522;2023-09-19T08:05:15;16.90;94.60
58638;DHT22;54976;51.510;7.522;2023-09-19T08:08:16;17.00;94.60
58638;DHT22;54976;51.510;7.522;2023-09-19T08:11:17;16.90;94.10
58638;DHT22;54976;51.510;7.522;2023-09-19T08:14:21;16.90;94.20
58638;DHT22;54976;51.510;7.522;2023-09-19T08:17:25;17.00;94.20
58638;DHT22;54976;51.510;7.522;2023-09-19T08:20:27;17.10;94.20
58638;DHT22;54976;51.510;7.522;2023-09-19T08:23:27;17.10;94.20
58638;DHT22;54976;51.510;7.522;2023-09-19T08:26:29;17.20;93.90
58638;DHT22;54976;51.510;7.522;2023-09-19T08:29:30;17.20;94.00
58638;DHT22;54976;51.510;7.522;2023-09-19T08:32:31;17.30;94.10
58638;DHT22;54976;51.510;7.522;2023-09-19T08:35:31;17.30;93.30
58638;DHT22;54976;51.510;7.522;2023-09-19T08:38:33;17.40;93.50
58638;DHT22;54976;51.510;7.522;2023-09-19T08:41:34;17.40;93.60
58638;DHT22;54976;51.510;7.522;2023-09-19T08:44:37;17.40;93.20
58638;DHT22;54976;51.510;7.522;2023-09-19T08:47:46;17.40;93.50
58638;DHT22;54976;51.510;7.522;2023-09-19T08:50:51;17.40;93.30
58638;DHT22;54976;51.510;7.522;2023-09-19T08:54:07;17.50;92.80
58638;DHT22;54976;51.510;7.522;2023-09-19T08:57:09;17.50;93.10
58638;DHT22;54976;51.510;7.522;2023-09-19T09:00:12;17.50;93.10
58638;DHT22;54976;51.510;7.522;2023-09-19T09:03:16;17.60;92.60
58638;DHT22;54976;51.510;7.522;2023-09-19T09:06:20;17.70;92.70
58638;DHT22;54976;51.510;7.522;2023-09-19T09:09:20;17.70;92.30
58638;DHT22;54976;51.510;7.522;2023-09-19T09:12:21;17.80;92.90
58638;DHT22;54976;51.510;7.522;2023-09-19T09:15:23;17.80;92.10
58638;DHT22;54976;51.510;7.522;2023-09-19T09:18:24;17.80;92.00
58638;DHT22;54976;51.510;7.522;2023-09-19T09:21:25;17.80;92.60
58638;DHT22;54976;51.510;7.522;2023-09-19T09:24:27;17.90;92.40
58638;DHT22;54976;51.510;7.522;2023-09-19T09:27:34;18.00;92.40
58638;DHT22;54976;51.510;7.522;2023-09-19T09:30:37;18.10;92.20
58638;DHT22;54976;51.510;7.522;2023-09-19T09:33:38;18.20;91.20
58638;DHT22;54976;51.510;7.522;2023-09-19T09:36:40;18.20;90.90
58638;DHT22;54976;51.510;7.522;2023-09-19T09:42:57;18.40;90.60
58638;DHT22;54976;51.510;7.522;2023-09-19T09:49:31;18.50;90.00
58638;DHT22;54976;51.510;7.522;2023-09-19T09:52:44;18.40;90.20
58638;DHT22;54976;51.510;7.522;2023-09-19T09:56:04;18.40;89.50
58638;DHT22;54976;51.510;7.522;2023-09-19T09:59:06;18.40;88.30
58638;DHT22;54976;51.510;7.522;2023-09-19T10:02:07;18.50;88.70
58638;DHT22;54976;51.510;7.522;2023-09-19T10:05:26;18.60;88.60
58638;DHT22;54976;51.510;7.522;2023-09-19T10:08:29;18.60;87.80
58638;DHT22;54976;51.510;7.522;2023-09-19T10:11:31;18.60;89.60
58638;DHT22;54976;51.510;7.522;2023-09-19T10:14:35;18.50;87.60
58638;DHT22;54976;51.510;7.522;2023-09-19T10:17:36;18.60;87.20
58638;DHT22;54976;51.510;7.522;2023-09-19T10:20:37;18.70;88.80
58638;DHT22;54976;51.510;7.522;2023-09-19T10:23:44;18.90;86.90
58638;DHT22;54976;51.510;7.522;2023-09-19T10:26:46;19.00;84.90
58638;DHT22;54976;51.510;7.522;2023-09-19T10:29:49;19.10;84.70
58638;DHT22;54976;51.510;7.522;2023-09-19T10:33:00;19.10;84.40
58638;DHT22;54976;51.510;7.522;2023-09-19T10:36:01;19.20;84.70
58638;DHT22;54976;51.510;7.522;2023-09-19T10:39:05;19.20;85.90
58638;DHT22;54976;51.510;7.522;2023-09-19T10:42:11;19.20;83.50
58638;DHT22;54976;51.510;7.522;2023-09-19T10:45:17;19.30;83.70
58638;DHT22;54976;51.510;7.522;2023-09-19T10:48:20;19.20;82.80
58638;DHT22;54976;51.510;7.522;2023-09-19T10:51:33;19.10;81.10
58638;DHT22;54976;51.510;7.522;2023-09-19T10:54:46;18.90;83.30
58638;DHT22;54976;51.510;7.522;2023-09-19T10:57:47;19.00;82.80
58638;DHT22;54976;51.510;7.522;2023-09-19T11:00:56;19.00;83.10
58638;DHT22;54976;51.510;7.522;2023-09-19T11:04:25;19.00;82.50
58638;DHT22;54976;51.510;7.522;2023-09-19T11:07:26;19.20;82.50
58638;DHT22;54976;51.510;7.522;2023-09-19T11:10:48;19.30;82.30
58638;DHT22;54976;51.510;7.522;2023-09-19T11:20:22;19.60;77.50
58638;DHT22;54976;51.510;7.522;2023-09-19T11:23:36;19.70;78.40
58638;DHT22;54976;51.510;7.522;2023-09-19T11:26:42;19.70;77.20
58638;DHT22;54976;51.510;7.522;2023-09-19T11:29:47;19.60;75.30
58638;DHT22;54976;51.510;7.522;2023-09-19T11:36:35;19.60;76.70
58638;DHT22;54976;51.510;7.522;2023-09-19T11:39:37;19.60;77.60
58638;DHT22;54976;51.510;7.522;2023-09-19T11:42:45;19.60;75.70
58638;DHT22;54976;51.510;7.522;2023-09-19T11:46:01;19.60;76.40
58638;DHT22;54976;51.510;7.522;2023-09-19T11:49:06;19.70;76.00
58638;DHT22;54976;51.510;7.522;2023-09-19T11:52:21;19.80;76.00
58638;DHT22;54976;51.510;7.522;2023-09-19T11:55:25;19.80;75.90
58638;DHT22;54976;51.510;7.522;2023-09-19T11:58:31;20.00;75.20
58638;DHT22;54976;51.510;7.522;2023-09-19T12:01:33;20.00;74.70
58638;DHT22;54976;51.510;7.522;2023-09-19T12:07:44;20.10;73.70
58638;DHT22;54976;51.510;7.522;2023-09-19T12:10:50;20.10;75.30
58638;DHT22;54976;51.510;7.522;2023-09-19T12:13:51;20.40;75.80
58638;DHT22;54976;51.510;7.522;2023-09-19T12:16:57;20.60;74.60
58638;DHT22;54976;51.510;7.522;2023-09-19T12:19:59;20.70;71.80
58638;DHT22;54976;51.510;7.522;2023-09-19T12:23:01;20.80;72.90
58638;DHT22;54976;51.510;7.522;2023-09-19T12:26:02;20.90;72.90
58638;DHT22;54976;51.510;7.522;2023-09-19T12:29:17;20.90;70.90
58638;DHT22;54976;51.510;7.522;2023-09-19T12:32:34;20.70;68.90
58638;DHT22;54976;51.510;7.522;2023-09-19T12:35:35;20.50;70.30
58638;DHT22;54976;51.510;7.522;2023-09-19T12:38:35;20.40;69.60
58638;DHT22;54976;51.510;7.522;2023-09-19T12:41:37;20.50;71.30
58638;DHT22;54976;51.510;7.522;2023-09-19T12:44:41;20.50;71.40
58638;DHT22;54976;51.510;7.522;2023-09-19T12:51:21;20.50;71.00
58638;DHT22;54976;51.510;7.522;2023-09-19T12:54:25;20.60;70.00
58638;DHT22;54976;51.510;7.522;2023-09-19T12:57:27;20.60;70.40
58638;DHT22;54976;51.510;7.522;2023-09-19T13:00:40;20.60;69.70
58638;DHT22;54976;51.510;7.522;2023-09-19T13:03:41;20.60;69.60
58638;DHT22;54976;51.510;7.522;2023-09-19T13:06:42;20.70;67.60
58638;DHT22;54976;51.510;7.522;2023-09-19T13:10:02;20.70;67.60
58638;DHT22;54976;51.510;7.522;2023-09-19T13:13:22;20.80;68.30
58638;DHT22;54976;51.510;7.522;2023-09-19T13:16:28;21.00;67.30
58638;DHT22;54976;51.510;7.522;2023-09-19T13:22:55;21.10;63.90
58638;DHT22;54976;51.510;7.522;2023-09-19T13:26:00;21.20;62.80
58638;DHT22;54976;51.510;7.522;2023-09-19T13:29:01;21.20;64.20
58638;DHT22;54976;51.510;7.522;2023-09-19T13:32:01;21.30;64.00
58638;DHT22;54976;51.510;7.522;2023-09-19T13:35:02;21.20;62.40
58638;DHT22;54976;51.510;7.522;2023-09-19T13:38:05;21.20;62.90
58638;DHT22;54976;51.510;7.522;2023-09-19T13:41:10;21.20;61.00
58638;DHT22;54976;51.510;7.522;2023-09-19T13:44:10;21.10;59.60
58638;DHT22;54976;51.510;7.522;2023-09-19T13:47:11;21.10;60.40
58638;DHT22;54976;51.510;7.522;2023-09-19T13:50:14;21.20;61.70
58638;DHT22;54976;51.510;7.522;2023-09-19T13:53:15;21.30;61.90
58638;DHT22;54976;51.510;7.522;2023-09-19T13:56:17;21.30;59.90
58638;DHT22;54976;51.510;7.522;2023-09-19T13:59:17;21.30;60.20
58638;DHT22;54976;51.510;7.522;2023-09-19T14:02:18;21.30;61.20
58638;DHT22;54976;51.510;7.522;2023-09-19T14:05:19;21.30;60.60
58638;DHT22;54976;51.510;7.522;2023-09-19T14:08:20;21.30;60.60
58638;DHT22;54976;51.510;7.522;2023-09-19T14:11:22;21.40;60.10
58638;DHT22;54976;51.510;7.522;2023-09-19T14:14:23;21.40;60.30
58638;DHT22;54976;51.510;7.522;2023-09-19T14:17:23;21.60;59.30
58638;DHT22;54976;51.510;7.522;2023-09-19T14:20:26;21.60;59.60
58638;DHT22;54976;51.510;7.522;2023-09-19T14:23:27;21.60;60.50
58638;DHT22;54976;51.510;7.522;2023-09-19T14:26:27;21.60;60.70
58638;DHT22;54976;51.510;7.522;2023-09-19T14:29:30;21.50;60.20
58638;DHT22;54976;51.510;7.522;2023-09-19T14:32:31;21.40;61.10
58638;DHT22;54976;51.510;7.522;2023-09-19T14:35:31;21.40;61.10
58638;DHT22;54976;51.510;7.522;2023-09-19T14:38:34;21.40;61.50
58638;DHT22;54976;51.510;7.522;2023-09-19T14:41:34;21.50;62.50
58638;DHT22;54976;51.510;7.522;2023-09-19T14:44:35;21.40;62.40
58638;DHT22;54976;51.510;7.522;2023-09-19T14:47:37;21.40;62.70
58638;DHT22;54976;51.510;7.522;2023-09-19T14:50:38;21.40;62.10
58638;DHT22;54976;51.510;7.522;2023-09-19T14:53:42;21.40;62.20
58638;DHT22;54976;51.510;7.522;2023-09-19T14:56:43;21.30;64.00
58638;DHT22;54976;51.510;7.522;2023-09-19T14:59:43;21.20;63.30
58638;DHT22;54976;51.510;7.522;2023-09-19T15:02:44;21.10;64.30
58638;DHT22;54976;51.510;7.522;2023-09-19T15:05:45;21.10;65.20
58638;DHT22;54976;51.510;7.522;2023-09-19T15:08:47;21.00;64.70
58638;DHT22;54976;51.510;7.522;2023-09-19T15:11:48;20.90;66.10
58638;DHT22;54976;51.510;7.522;2023-09-19T15:14:49;20.90;66.20
58638;DHT22;54976;51.510;7.522;2023-09-19T15:17:49;20.80;65.90
58638;DHT22;54976;51.510;7.522;2023-09-19T15:20:50;20.70;65.50
58638;DHT22;54976;51.510;7.522;2023-09-19T15:23:51;20.80;65.60
58638;DHT22;54976;51.510;7.522;2023-09-19T15:26:52;20.70;67.10
58638;DHT22;54976;51.510;7.522;2023-09-19T15:29:52;20.70;67.20
58638;DHT22;54976;51.510;7.522;2023-09-19T15:32:53;20.80;67.40
58638;DHT22;54976;51.510;7.522;2023-09-19T15:36:03;20.70;67.50
58638;DHT22;54976;51.510;7.522;2023-09-19T15:39:06;20.60;68.30
58638;DHT22;54976;51.510;7.522;2023-09-19T15:42:07;20.60;68.90
58638;DHT22;54976;51.510;7.522;2023-09-19T15:45:08;20.40;69.20
58638;DHT22;54976;51.510;7.522;2023-09-19T15:48:10;20.30;70.90
58638;DHT22;54976;51.510;7.522;2023-09-19T15:51:12;20.20;70.60
58638;DHT22;54976;51.510;7.522;2023-09-19T15:54:14;20.10;71.30
58638;DHT22;54976;51.510;7.522;2023-09-19T15:57:14;20.00;70.30
58638;DHT22;54976;51.510;7.522;2023-09-19T16:00:15;19.90;71.40
58638;DHT22;54976;51.510;7.522;2023-09-19T16:03:17;19.90;71.70
58638;DHT22;54976;51.510;7.522;2023-09-19T16:06:20;20.00;73.70
58638;DHT22;54976;51.510;7.522;2023-09-19T16:09:23;20.00;71.60
58638;DHT22;54976;51.510;7.522;2023-09-19T16:12:24;20.00;71.60
58638;DHT22;54976;51.510;7.522;2023-09-19T16:15:24;20.00;71.20
58638;DHT22;54976;51.510;7.522;2023-09-19T16:18:26;20.00;71.50
58638;DHT22;54976;51.510;7.522;2023-09-19T16:21:27;20.00;71.70
58638;DHT22;54976;51.510;7.522;2023-09-19T16:24:28;20.00;71.60
58638;DHT22;54976;51.510;7.522;2023-09-19T16:27:29;19.90;72.00
58638;DHT22;54976;51.510;7.522;2023-09-19T16:30:32;19.90;72.00
58638;DHT22;54976;51.510;7.522;2023-09-19T16:33:36;19.80;72.30
58638;DHT22;54976;51.510;7.522;2023-09-19T16:36:42;19.80;72.00
58638;DHT22;54976;51.510;7.522;2023-09-19T16:39:43;19.70;72.80
58638;DHT22;54976;51.510;7.522;2023-09-19T16:42:44;19.60;73.50
58638;DHT22;54976;51.510;7.522;2023-09-19T16:45:52;19.60;73.50
58638;DHT22;54976;51.510;7.522;2023-09-19T16:48:53;19.60;72.80
58638;DHT22;54976;51.510;7.522;2023-09-19T16:51:54;19.50;74.40
58638;DHT22;54976;51.510;7.522;2023-09-19T16:54:55;19.50;74.50
58638;DHT22;54976;51.510;7.522;2023-09-19T16:57:58;19.40;73.60
58638;DHT22;54976;51.510;7.522;2023-09-19T17:00:59;19.40;73.10
58638;DHT22;54976;51.510;7.522;2023-09-19T17:04:00;19.40;73.00
58638;DHT22;54976;51.510;7.522;2023-09-19T17:07:03;19.40;73.40
58638;DHT22;54976;51.510;7.522;2023-09-19T17:10:04;19.40;74.00
58638;DHT22;54976;51.510;7.522;2023-09-19T17:13:05;19.30;74.70
58638;DHT22;54976;51.510;7.522;2023-09-19T17:16:09;19.30;74.20
58638;DHT22;54976;51.510;7.522;2023-09-19T17:19:09;19.20;73.60
58638;DHT22;54976;51.510;7.522;2023-09-19T17:22:12;19.20;74.20
58638;DHT22;54976;51.510;7.522;2023-09-19T17:25:13;19.20;73.90
58638;DHT22;54976;51.510;7.522;2023-09-19T17:28:13;19.10;74.30
58638;DHT22;54976;51.510;7.522;2023-09-19T17:31:19;19.10;74.10
58638;DHT22;54976;51.510;7.522;2023-09-19T17:34:21;19.10;74.20
58638;DHT22;54976;51.510;7.522;2023-09-19T17:37:23;19.10;74.60
58638;DHT22;54976;51.510;7.522;2023-09-19T17:40:23;19.10;74.60
58638;DHT22;54976;51.510;7.522;2023-09-19T17:43:24;19.10;74.50
58638;DHT22;54976;51.510;7.522;2023-09-19T17:46:25;19.10;75.00
58638;DHT22;54976;51.510;7.522;2023-09-19T17:49:27;19.10;75.30
58638;DHT22;54976;51.510;7.522;2023-09-19T17:52:27;19.10;75.20
58638;DHT22;54976;51.510;7.522;2023-09-19T17:55:28;19.00;74.50
58638;DHT22;54976;51.510;7.522;2023-09-19T17:58:29;19.00;75.30
58638;DHT22;54976;51.510;7.522;2023-09-19T18:01:30;19.00;75.50
58638;DHT22;54976;51.510;7.522;2023-09-19T18:04:32;19.00;75.10
58638;DHT22;54976;51.510;7.522;2023-09-19T18:07:33;19.00;75.10
58638;DHT22;54976;51.510;7.522;2023-09-19T18:10:37;19.10;75.50
58638;DHT22;54976;51.510;7.522;2023-09-19T18:13:38;19.10;75.20
58638;DHT22;54976;51.510;7.522;2023-09-19T18:16:39;19.00;76.00
58638;DHT22;54976;51.510;7.522;2023-09-19T18:19:40;19.10;75.60
58638;DHT22;54976;51.510;7.522;2023-09-19T18:22:40;19.10;75.70
58638;DHT22;54976;51.510;7.522;2023-09-19T18:25:41;19.10;75.80
58638;DHT22;54976;51.510;7.522;2023-09-19T18:28:42;19.10;75.60
58638;DHT22;54976;51.510;7.522;2023-09-19T18:31:44;19.10;75.70
58638;DHT22;54976;51.510;7.522;2023-09-19T18:34:45;19.10;75.70
58638;DHT22;54976;51.510;7.522;2023-09-19T18:37:46;19.10;75.30
58638;DHT22;54976;51.510;7.522;2023-09-19T18:40:46;19.10;75.80
58638;DHT22;54976;51.510;7.522;2023-09-19T18:43:47;19.10;75.80
58638;DHT22;54976;51.510;7.522;2023-09-19T18:46:48;19.20;76.00
58638;DHT22;54976;51.510;7.522;2023-09-19T18:49:49;19.10;75.60
58638;DHT22;54976;51.510;7.522;2023-09-19T18:52:50;19.10;75.80
58638;DHT22;54976;51.510;7.522;2023-09-19T18:56:09;19.10;76.40
58638;DHT22;54976;51.510;7.522;2023-09-19T18:59:12;19.10;76.00
58638;DHT22;54976;51.510;7.522;2023-09-19T19:02:14;19.10;75.00
58638;DHT22;54976;51.510;7.522;2023-09-19T19:05:14;19.10;75.10
58638;DHT22;54976;51.510;7.522;2023-09-19T19:08:16;19.10;75.10
58638;DHT22;54976;51.510;7.522;2023-09-19T19:11:17;19.10;75.30
58638;DHT22;54976;51.510;7.522;2023-09-19T19:14:20;19.10;75.50
58638;DHT22;54976;51.510;7.522;2023-09-19T19:17:20;19.10;75.70
58638;DHT22;54976;51.510;7.522;2023-09-19T19:20:21;19.10;75.60
58638;DHT22;54976;51.510;7.522;2023-09-19T19:23:24;19.10;75.40
58638;DHT22;54976;51.510;7.522;2023-09-19T19:26:25;19.00;76.20
58638;DHT22;54976;51.510;7.522;2023-09-19T19:29:26;19.00;76.20
58638;DHT22;54976;51.510;7.522;2023-09-19T19:32:29;18.90;76.30
58638;DHT22;54976;51.510;7.522;2023-09-19T19:35:29;18.90;76.30
58638;DHT22;54976;51.510;7.522;2023-09-19T19:38:30;18.90;76.40
58638;DHT22;54976;51.510;7.522;2023-09-19T19:41:34;18.80;76.60
58638;DHT22;54976;51.510;7.522;2023-09-19T19:44:37;18.80;76.00
58638;DHT22;54976;51.510;7.522;2023-09-19T19:47:37;18.90;76.40
58638;DHT22;54976;51.510;7.522;2023-09-19T19:50:38;18.90;76.20